createdAt,value
2022-09-03T00:04:30.125Z,99.90
2022-09-03T00:09:21.825Z,99.90
2022-09-03T00:14:07.441Z,99.90
2022-09-03T00:18:33.903Z,99.90
2022-09-03T00:23:01.522Z,99.90
2022-09-03T00:27:27.244Z,99.90
2022-09-03T00:32:05.243Z,99.90
2022-09-03T00:36:44.163Z,99.90
2022-09-03T00:41:38.823Z,99.90
2022-09-03T00:46:56.622Z,99.90
2022-09-03T00:51:33.802Z,99.90
2022-09-03T00:55:58.977Z,99.90
2022-09-03T01:00:21.603Z,99.90
2022-09-03T01:05:11.902Z,99.90
2022-09-03T01:09:37.702Z,99.90
2022-09-03T01:14:39.783Z,99.90
2022-09-03T01:19:52.386Z,99.90
2022-09-03T01:25:32.291Z,99.90
2022-09-03T01:30:05.443Z,99.90
2022-09-03T01:34:48.262Z,99.90
2022-09-03T01:39:30.015Z,99.90
2022-09-03T01:44:23.841Z,99.90
2022-09-03T01:48:52.501Z,99.90
2022-09-03T01:53:35.922Z,99.90
2022-09-03T01:58:20.361Z,99.90
2022-09-03T02:02:48.301Z,99.90
2022-09-03T02:07:10.675Z,99.90
2022-09-03T02:11:32.570Z,99.90
2022-09-03T02:16:01.047Z,99.90
2022-09-03T02:20:27.667Z,99.90
2022-09-03T02:24:50.007Z,99.90
2022-09-03T02:29:12.857Z,99.90
2022-09-03T02:33:40.809Z,99.90
2022-09-03T02:38:26.197Z,99.90
2022-09-03T02:42:49.448Z,99.90
2022-09-03T02:47:12.170Z,99.90
2022-09-03T02:51:43.231Z,99.90
2022-09-03T02:56:05.907Z,99.90
2022-09-03T03:00:28.949Z,99.90
2022-09-03T03:04:51.159Z,99.90
2022-09-03T03:09:13.148Z,99.90
2022-09-03T03:13:35.148Z,99.90
2022-09-03T03:17:57.867Z,99.90
2022-09-03T03:22:19.690Z,99.90
2022-09-03T03:26:41.947Z,99.90
2022-09-03T03:31:30.687Z,99.90
2022-09-03T03:35:53.128Z,99.90
2022-09-03T03:40:15.656Z,99.90
2022-09-03T03:44:37.747Z,99.90
2022-09-03T03:49:00.167Z,99.90
2022-09-03T03:53:22.179Z,99.90
2022-09-03T03:57:44.481Z,99.90
2022-09-03T04:02:07.770Z,99.90
2022-09-03T04:06:30.080Z,99.90
2022-09-03T04:10:52.200Z,99.90
2022-09-03T04:15:14.039Z,99.90
2022-09-03T04:19:36.200Z,99.90
2022-09-03T04:23:59.440Z,99.90
2022-09-03T04:28:22.476Z,99.90
2022-09-03T04:32:55.121Z,99.90
2022-09-03T04:37:20.000Z,99.90
2022-09-03T04:41:42.000Z,99.90
2022-09-03T04:46:10.874Z,99.90
2022-09-03T04:50:38.239Z,99.90
2022-09-03T04:55:01.000Z,99.90
2022-09-03T04:59:23.040Z,99.90
2022-09-03T05:03:46.161Z,99.90
2022-09-03T05:08:08.119Z,99.90
2022-09-03T05:12:32.000Z,99.90
2022-09-03T05:16:53.999Z,99.90
2022-09-03T05:21:18.962Z,99.90
2022-09-03T05:25:40.859Z,99.20
2022-09-03T05:30:02.759Z,95.70
2022-09-03T05:34:24.982Z,92.90
2022-09-03T05:38:50.361Z,90.80
2022-09-03T05:43:12.640Z,87.60
2022-09-03T05:47:34.770Z,83.50
2022-09-03T05:51:56.840Z,76.80
2022-09-03T05:56:22.856Z,71.80
2022-09-03T06:00:44.720Z,67.30
2022-09-03T06:05:08.259Z,63.10
2022-09-03T06:09:30.178Z,60.00
2022-09-03T06:13:52.460Z,57.50
2022-09-03T06:18:14.355Z,55.90
2022-09-03T06:22:36.321Z,53.10
2022-09-03T06:26:58.521Z,51.60
2022-09-03T06:31:21.312Z,49.70
2022-09-03T06:35:44.317Z,49.30
2022-09-03T06:40:13.317Z,46.80
2022-09-03T06:44:35.097Z,46.50
2022-09-03T06:48:57.429Z,45.70
2022-09-03T06:53:19.316Z,47.50
2022-09-03T06:57:41.557Z,47.30
2022-09-03T07:02:04.175Z,48.20
2022-09-03T07:06:29.656Z,48.00
2022-09-03T07:10:51.497Z,47.40
2022-09-03T07:15:13.776Z,48.00
2022-09-03T07:19:35.737Z,47.10
2022-09-03T07:24:00.156Z,47.20
2022-09-03T07:28:22.057Z,45.40
2022-09-03T07:32:44.139Z,46.10
2022-09-03T07:37:07.537Z,46.30
2022-09-03T07:41:33.330Z,45.30
2022-09-03T07:45:57.277Z,44.40
2022-09-03T07:50:21.126Z,41.40
2022-09-03T07:54:44.708Z,41.60
2022-09-03T07:59:07.136Z,43.50
2022-09-03T08:03:28.943Z,43.40
2022-09-03T08:07:51.159Z,43.90
2022-09-03T08:12:13.356Z,44.60
2022-09-03T08:16:49.824Z,42.70
2022-09-03T08:21:19.307Z,40.30
2022-09-03T08:25:41.657Z,41.80
2022-09-03T08:30:04.730Z,43.40
2022-09-03T08:34:26.796Z,44.60
2022-09-03T08:38:50.619Z,44.10
2022-09-03T08:43:19.157Z,44.30
2022-09-03T08:48:25.586Z,43.50
2022-09-03T08:53:03.198Z,41.60
2022-09-03T08:57:26.336Z,44.30
2022-09-03T09:02:25.684Z,44.30
2022-09-03T09:07:16.608Z,43.20
2022-09-03T09:12:05.089Z,42.60
2022-09-03T09:17:18.056Z,42.00
2022-09-03T09:21:53.316Z,41.70
2022-09-03T09:26:24.381Z,42.30
2022-09-03T09:30:50.016Z,40.70
2022-09-03T09:35:12.403Z,42.10
2022-09-03T09:39:34.933Z,42.40
2022-09-03T09:44:03.398Z,42.20
2022-09-03T09:48:32.838Z,40.80
2022-09-03T09:53:14.914Z,40.30
2022-09-03T09:57:38.256Z,41.40
2022-09-03T10:02:22.294Z,41.10
2022-09-03T10:06:59.671Z,40.80
2022-09-03T10:11:25.955Z,39.50
2022-09-03T10:16:16.610Z,39.10
2022-09-03T10:21:28.992Z,38.70
2022-09-03T10:26:30.636Z,37.30
2022-09-03T10:31:12.069Z,39.20
2022-09-03T10:35:46.654Z,39.30
2022-09-03T10:40:31.105Z,38.10
2022-09-03T10:45:46.714Z,39.70
2022-09-03T10:50:19.907Z,39.10
2022-09-03T10:55:23.793Z,38.40
2022-09-03T11:00:10.951Z,39.10
2022-09-03T11:05:04.051Z,39.30
2022-09-03T11:09:40.933Z,38.10
2022-09-03T11:14:10.852Z,37.10
2022-09-03T11:18:47.112Z,38.30
2022-09-03T11:23:13.631Z,36.30
2022-09-03T11:27:42.131Z,35.20
2022-09-03T11:32:36.251Z,35.90
2022-09-03T11:37:27.851Z,39.10
2022-09-03T11:42:08.931Z,41.50
2022-09-03T11:46:31.938Z,45.20
2022-09-03T11:50:55.970Z,47.00
2022-09-03T11:55:38.346Z,47.90
2022-09-03T12:00:18.312Z,47.90
2022-09-03T12:05:35.270Z,46.90
2022-09-03T12:10:24.896Z,49.30
2022-09-03T12:15:44.194Z,51.50
2022-09-03T12:20:15.131Z,52.80
2022-09-03T12:24:38.307Z,53.30
2022-09-03T12:29:01.271Z,54.10
2022-09-03T12:33:24.032Z,55.00
2022-09-03T12:42:32.096Z,55.20
2022-09-03T12:51:54.567Z,56.40
2022-09-03T12:56:19.978Z,56.30
2022-09-03T13:00:50.416Z,55.90
2022-09-03T13:05:20.192Z,56.30
2022-09-03T13:09:43.132Z,56.50
2022-09-03T13:14:14.532Z,57.40
2022-09-03T13:19:09.954Z,57.60
2022-09-03T13:23:55.611Z,58.50
2022-09-03T13:28:31.991Z,58.20
2022-09-03T13:33:26.536Z,58.30
2022-09-03T13:38:15.671Z,59.50
2022-09-03T13:42:43.913Z,59.60
2022-09-03T13:47:10.471Z,57.70
2022-09-03T13:51:45.151Z,57.40
2022-09-03T13:56:52.871Z,59.60
2022-09-03T14:02:01.142Z,60.40
2022-09-03T14:06:45.212Z,60.50
2022-09-03T14:11:23.952Z,58.10
2022-09-03T14:16:12.529Z,58.50
2022-09-03T14:21:00.171Z,59.60
2022-09-03T14:25:27.749Z,58.90
2022-09-03T14:30:00.552Z,59.10
2022-09-03T14:34:50.576Z,60.00
2022-09-03T14:39:34.638Z,59.90
2022-09-03T14:44:53.373Z,60.20
2022-09-03T14:49:57.972Z,59.90
2022-09-03T14:55:25.871Z,60.00
2022-09-03T15:00:20.974Z,60.10
2022-09-03T15:05:16.881Z,59.60
2022-09-03T15:10:32.118Z,60.50
2022-09-03T15:15:01.753Z,60.00
2022-09-03T15:19:45.072Z,60.10
2022-09-03T15:24:36.015Z,60.10
2022-09-03T15:29:10.312Z,60.30
2022-09-03T15:34:17.198Z,60.70
2022-09-03T15:39:16.732Z,60.90
2022-09-03T15:43:40.517Z,61.00
2022-09-03T15:48:36.734Z,60.80
2022-09-03T15:53:08.112Z,61.30
2022-09-03T15:58:09.592Z,60.00
2022-09-03T16:02:46.592Z,61.00
2022-09-03T16:07:21.593Z,60.80
2022-09-03T16:12:14.554Z,62.00
2022-09-03T16:16:58.433Z,61.60
2022-09-03T16:21:32.112Z,61.70
2022-09-03T16:26:09.294Z,62.30
2022-09-03T16:30:40.173Z,63.00
2022-09-03T16:35:32.470Z,64.30
2022-09-03T16:40:26.917Z,65.00
2022-09-03T16:45:12.012Z,66.40
2022-09-03T16:50:08.545Z,67.30
2022-09-03T16:55:16.095Z,68.50
2022-09-03T17:00:12.478Z,69.50
2022-09-03T17:05:09.072Z,70.10
2022-09-03T17:10:17.632Z,70.80
2022-09-03T17:14:42.512Z,71.20
2022-09-03T17:19:52.892Z,71.90
2022-09-03T17:24:47.972Z,72.30
2022-09-03T17:29:50.680Z,73.30
2022-09-03T17:34:27.832Z,74.00
2022-09-03T17:39:23.682Z,74.60
2022-09-03T17:43:58.833Z,75.30
2022-09-03T17:48:51.714Z,76.40
2022-09-03T17:53:27.059Z,77.00
2022-09-03T17:58:23.011Z,77.90
2022-09-03T18:03:30.371Z,78.80
2022-09-03T18:08:08.172Z,80.10
2022-09-03T18:13:04.063Z,80.70
2022-09-03T18:17:47.634Z,81.50
2022-09-03T18:22:28.672Z,82.80
2022-09-03T18:27:23.080Z,83.80
2022-09-03T18:32:04.712Z,85.20
2022-09-03T18:36:46.132Z,87.40
2022-09-03T18:41:51.691Z,87.80
2022-09-03T18:52:45.871Z,90.00
2022-09-03T18:58:05.491Z,90.50
2022-09-03T19:03:12.393Z,91.00
2022-09-03T19:08:32.473Z,91.40
2022-09-03T19:13:46.958Z,92.10
2022-09-03T19:18:54.537Z,92.70
2022-09-03T19:23:35.372Z,93.30
2022-09-03T19:28:37.248Z,93.90
2022-09-03T19:34:04.255Z,94.40
2022-09-03T19:39:29.702Z,95.20
2022-09-03T19:44:09.931Z,96.10
2022-09-03T19:49:11.503Z,97.70
2022-09-03T19:53:53.731Z,97.80
2022-09-03T19:58:44.051Z,98.80
2022-09-03T20:03:25.373Z,99.90
2022-09-03T20:08:11.133Z,99.90
2022-09-03T20:12:42.611Z,99.90
2022-09-03T20:17:36.752Z,99.90
2022-09-03T20:22:30.115Z,99.90
2022-09-03T20:27:34.172Z,99.90
2022-09-03T20:32:44.032Z,99.90
2022-09-03T20:37:41.231Z,99.90
2022-09-03T20:42:24.332Z,99.90
2022-09-03T20:47:02.571Z,99.90
2022-09-03T20:51:34.952Z,99.90
2022-09-03T20:56:06.432Z,99.90
2022-09-03T21:00:45.366Z,99.90
2022-09-03T21:05:35.512Z,99.90
2022-09-03T21:10:48.711Z,99.90
2022-09-03T21:15:35.710Z,99.90
2022-09-03T21:20:47.972Z,99.90
2022-09-03T21:25:18.911Z,99.90
2022-09-03T21:29:53.611Z,99.90
2022-09-03T21:35:13.731Z,99.90
2022-09-03T21:39:50.773Z,99.90
2022-09-03T21:44:41.132Z,99.90
2022-09-03T21:49:12.672Z,99.90
2022-09-03T21:53:55.213Z,99.90
2022-09-03T21:58:36.311Z,99.90
2022-09-03T22:02:59.451Z,99.90
2022-09-03T22:07:58.432Z,99.90
2022-09-03T22:13:16.448Z,99.90
2022-09-03T22:17:57.071Z,99.90
2022-09-03T22:22:47.955Z,99.90
2022-09-03T22:28:05.612Z,99.90
2022-09-03T22:32:56.132Z,99.90
2022-09-03T22:37:28.371Z,99.90
2022-09-03T22:42:38.531Z,99.90
2022-09-03T22:47:48.816Z,99.90
2022-09-03T22:52:37.214Z,99.90
2022-09-03T22:57:02.512Z,99.90
2022-09-03T23:01:53.393Z,99.90
2022-09-03T23:06:32.677Z,99.90
2022-09-03T23:11:23.351Z,99.90
2022-09-03T23:15:54.171Z,99.90
2022-09-03T23:20:27.914Z,99.90
2022-09-03T23:25:06.431Z,99.90
2022-09-03T23:29:46.303Z,99.90
2022-09-03T23:34:11.684Z,99.90
2022-09-03T23:38:53.111Z,99.90
2022-09-03T23:44:01.755Z,99.90
2022-09-03T23:48:30.211Z,99.90
2022-09-03T23:53:05.611Z,99.90
2022-09-03T23:57:42.054Z,99.90
